sensor_id;sensor_type;location;lat;lon;timestamp;temperature;humidity
40249;DHT22;25969;49.970;11.062;2023-05-07T04:11:07;12.20;99.90
40249;DHT22;25969;49.970;11.062;2023-05-07T04:21:19;12.20;99.90
40249;DHT22;25969;49.970;11.062;2023-05-07T04:31:20;12.10;99.90
40249;DHT22;25969;49.970;11.062;2023-05-07T04:41:25;12.10;99.90
40249;DHT22;25969;49.970;11.062;2023-05-07T04:51:26;12.00;99.90
40249;DHT22;25969;49.970;11.062;2023-05-07T05:01:27;12.00;99.90
40249;DHT22;25969;49.970;11.062;2023-05-07T05:11:28;12.20;99.90
40249;DHT22;25969;49.970;11.062;2023-05-07T05:21:30;12.40;99.90
40249;DHT22;25969;49.970;11.062;2023-05-07T05:31:37;12.70;99.90
40249;DHT22;25969;49.970;11.062;2023-05-07T05:41:38;12.80;99.90
40249;DHT22;25969;49.970;11.062;2023-05-07T05:51:38;13.10;99.90
40249;DHT22;25969;49.970;11.062;2023-05-07T06:01:40;13.60;99.90
40249;DHT22;25969;49.970;11.062;2023-05-07T06:11:41;13.70;99.90
40249;DHT22;25969;49.970;11.062;2023-05-07T06:21:42;14.30;98.40
40249;DHT22;25969;49.970;11.062;2023-05-07T06:31:44;14.40;98.10
40249;DHT22;25969;49.970;11.062;2023-05-07T17:49:23;18.60;72.80
40249;DHT22;25969;49.970;11.062;2023-05-07T17:59:24;17.90;73.90
40249;DHT22;25969;49.970;11.062;2023-05-07T18:09:25;17.50;75.00
40249;DHT22;25969;49.970;11.062;2023-05-07T18:19:25;17.10;76.30
40249;DHT22;25969;49.970;11.062;2023-05-07T18:29:26;16.80;77.90
40249;DHT22;25969;49.970;11.062;2023-05-07T18:39:27;16.60;78.60
40249;DHT22;25969;49.970;11.062;2023-05-07T18:49:28;16.30;79.10
40249;DHT22;25969;49.970;11.062;2023-05-07T18:59:29;16.00;80.90
40249;DHT22;25969;49.970;11.062;2023-05-07T19:09:30;15.70;82.40
40249;DHT22;25969;49.970;11.062;2023-05-07T19:19:31;15.40;83.40
40249;DHT22;25969;49.970;11.062;2023-05-07T19:29:32;15.30;84.50
40249;DHT22;25969;49.970;11.062;2023-05-07T19:39:33;15.00;85.80
40249;DHT22;25969;49.970;11.062;2023-05-07T19:49:34;14.90;86.60
40249;DHT22;25969;49.970;11.062;2023-05-07T19:59:35;14.70;87.30
40249;DHT22;25969;49.970;11.062;2023-05-07T20:09:35;14.60;88.10
40249;DHT22;25969;49.970;11.062;2023-05-07T20:19:36;14.40;89.60
40249;DHT22;25969;49.970;11.062;2023-05-07T20:29:37;14.20;90.20
40249;DHT22;25969;49.970;11.062;2023-05-07T20:39:38;14.10;90.40
40249;DHT22;25969;49.970;11.062;2023-05-07T20:49:39;14.00;90.70
40249;DHT22;25969;49.970;11.062;2023-05-07T20:59:41;14.00;90.70
40249;DHT22;25969;49.970;11.062;2023-05-07T21:09:42;13.90;90.80
40249;DHT22;25969;49.970;11.062;2023-05-07T21:19:43;13.80;90.30
40249;DHT22;25969;49.970;11.062;2023-05-07T21:29:44;13.80;89.00
40249;DHT22;25969;49.970;11.062;2023-05-07T21:39:44;13.70;88.90
40249;DHT22;25969;49.970;11.062;2023-05-07T21:49:45;13.60;88.80
